This is the latest recevied weather packets stored in our database for station/object KK7RJD. If no packets are shown the sender has not sent any weather packets the latest 10 day(s).
| Time | Temp. | Humidity | Pressure | Rain* | Wind** | Luminosity | Snow |
|---|---|---|---|---|---|---|---|
| 1777955582 | 8.33° C | 49% | 1015.1 hPa | 0 mm | - | 0 W/m² | - |
| 1777955278 | 8.33° C | 50% | 1014.9 hPa | 0 mm | - | 0 W/m² | - |
| 1777954975 | 8.89° C | 50% | 1014.9 hPa | 0 mm | - | 0 W/m² | - |
| 1777954672 | 8.89° C | 50% | 1014.9 hPa | 0 mm | - | 0 W/m² | - |
| 1777954369 | 8.89° C | 49% | 1014.9 hPa | 0 mm | - | 0 W/m² | - |
| 1777954066 | 8.89° C | 50% | 1014.6 hPa | 0 mm | - | 0 W/m² | - |
| 1777953764 | 8.89° C | 49% | 1014.3 hPa | 0 mm | - | 0 W/m² | - |
| 1777953461 | 8.89° C | 49% | 1014.5 hPa | 0 mm | - | 0 W/m² | - |
| 1777943760 | 10° C | 43% | 1012.9 hPa | 0 mm | - | 47 W/m² | - |
| 1777943459 | 10° C | 42% | 1013.2 hPa | 0 mm | - | 58 W/m² | - |
| 1777943159 | 10.56° C | 42% | 1013 hPa | 0 mm | - | 78 W/m² | - |
| 1777942552 | 10.56° C | 41% | 1013 hPa | 0 mm | - | 141 W/m² | - |
| 1777941340 | 10.56° C | 42% | 1012.9 hPa | 0 mm | - | 113 W/m² | - |
| 1777940437 | 10.56° C | 41% | 1012.8 hPa | 0 mm | - | 112 W/m² | - |
| 1777940134 | 10.56° C | 41% | 1012.8 hPa | 0 mm | - | 109 W/m² | - |
| 1777939529 | 10.56° C | 40% | 1012.8 hPa | 0 mm | - | 86 W/m² | - |
| 1777938923 | 10.56° C | 40% | 1012.7 hPa | 0 mm | - | 104 W/m² | - |
| 1777934376 | 12.22° C | 41% | 1012.1 hPa | 0 mm | - | 455 W/m² | - |
| 1777933767 | 12.78° C | 40% | 1012 hPa | 0 mm | - | 495 W/m² | - |
| 1777932253 | 12.78° C | 39% | 1011.9 hPa | 0 mm | - | 633 W/m² | - |
| 1777931647 | 12.78° C | 42% | 1011.9 hPa | 0 mm | - | 660 W/m² | - |
| 1777930130 | 13.33° C | 42% | 1011.8 hPa | 0 mm | - | 793 W/m² | - |
| 1777929826 | 12.78° C | 41% | 1012 hPa | 0 mm | - | 296 W/m² | - |
| 1777929524 | 13.89° C | 39% | 1011.9 hPa | 0 mm | - | 385 W/m² | - |
| 1777929219 | 13.33° C | 41% | 1012.1 hPa | 0 mm | - | 409 W/m² | - |
* Rain latest hour (hover to see other rain measurements)
** Current wind speed in m/s (hover to see current wind gust speed)